sensor_id;sensor_type;location;lat;lon;timestamp;P1;durP1;ratioP1;P2;durP2;ratioP2
66175;SDS011;52977;44.816;20.538;2023-04-07T00:00:10;20.00;;;9.35;;
66175;SDS011;52977;44.816;20.538;2023-04-07T00:02:37;22.75;;;9.50;;
66175;SDS011;52977;44.816;20.538;2023-04-07T00:05:03;19.55;;;9.38;;
66175;SDS011;52977;44.816;20.538;2023-04-07T00:07:30;19.33;;;8.88;;
66175;SDS011;52977;44.816;20.538;2023-04-07T00:09:56;21.05;;;9.73;;
66175;SDS011;52977;44.816;20.538;2023-04-07T00:12:22;21.30;;;9.50;;
66175;SDS011;52977;44.816;20.538;2023-04-07T00:14:48;20.60;;;9.18;;
66175;SDS011;52977;44.816;20.538;2023-04-07T00:17:14;23.15;;;9.85;;
66175;SDS011;52977;44.816;20.538;2023-04-07T00:19:40;22.38;;;9.60;;
66175;SDS011;52977;44.816;20.538;2023-04-07T00:22:06;20.77;;;9.27;;
66175;SDS011;52977;44.816;20.538;2023-04-07T00:24:33;24.05;;;10.80;;
66175;SDS011;52977;44.816;20.538;2023-04-07T00:26:59;20.65;;;10.52;;
66175;SDS011;52977;44.816;20.538;2023-04-07T00:29:25;24.90;;;10.15;;
66175;SDS011;52977;44.816;20.538;2023-04-07T00:31:52;21.25;;;9.57;;
66175;SDS011;52977;44.816;20.538;2023-04-07T00:34:18;21.83;;;10.27;;
66175;SDS011;52977;44.816;20.538;2023-04-07T00:36:44;27.08;;;10.43;;
66175;SDS011;52977;44.816;20.538;2023-04-07T00:39:19;23.05;;;10.20;;
66175;SDS011;52977;44.816;20.538;2023-04-07T00:41:46;20.60;;;10.18;;
66175;SDS011;52977;44.816;20.538;2023-04-07T00:44:12;20.15;;;10.70;;
66175;SDS011;52977;44.816;20.538;2023-04-07T00:46:39;23.20;;;10.70;;
66175;SDS011;52977;44.816;20.538;2023-04-07T00:49:06;27.75;;;10.95;;
66175;SDS011;52977;44.816;20.538;2023-04-07T00:51:33;21.23;;;9.55;;
66175;SDS011;52977;44.816;20.538;2023-04-07T00:53:59;21.80;;;10.93;;
66175;SDS011;52977;44.816;20.538;2023-04-07T00:56:26;22.73;;;10.18;;
66175;SDS011;52977;44.816;20.538;2023-04-07T00:58:52;21.60;;;10.13;;
66175;SDS011;52977;44.816;20.538;2023-04-07T01:01:23;20.27;;;9.82;;
66175;SDS011;52977;44.816;20.538;2023-04-07T01:04:06;16.77;;;9.38;;
66175;SDS011;52977;44.816;20.538;2023-04-07T01:09:13;17.55;;;9.00;;
66175;SDS011;52977;44.816;20.538;2023-04-07T01:11:54;17.65;;;9.02;;
66175;SDS011;52977;44.816;20.538;2023-04-07T01:14:44;19.67;;;9.68;;
66175;SDS011;52977;44.816;20.538;2023-04-07T01:17:28;19.35;;;9.10;;
66175;SDS011;52977;44.816;20.538;2023-04-07T01:20:01;22.27;;;9.80;;
66175;SDS011;52977;44.816;20.538;2023-04-07T01:25:12;20.30;;;9.90;;
66175;SDS011;52977;44.816;20.538;2023-04-07T01:30:29;25.55;;;10.45;;
66175;SDS011;52977;44.816;20.538;2023-04-07T01:32:58;20.92;;;11.10;;
66175;SDS011;52977;44.816;20.538;2023-04-07T01:35:27;19.90;;;10.32;;
66175;SDS011;52977;44.816;20.538;2023-04-07T01:37:57;23.65;;;10.38;;
66175;SDS011;52977;44.816;20.538;2023-04-07T01:40:25;21.92;;;10.73;;
66175;SDS011;52977;44.816;20.538;2023-04-07T01:42:53;26.00;;;11.10;;
66175;SDS011;52977;44.816;20.538;2023-04-07T01:45:22;22.15;;;9.68;;
66175;SDS011;52977;44.816;20.538;2023-04-07T01:47:52;21.63;;;9.63;;
66175;SDS011;52977;44.816;20.538;2023-04-07T01:50:20;23.75;;;10.77;;
66175;SDS011;52977;44.816;20.538;2023-04-07T01:52:46;21.80;;;11.40;;
66175;SDS011;52977;44.816;20.538;2023-04-07T01:55:13;20.55;;;10.50;;
66175;SDS011;52977;44.816;20.538;2023-04-07T01:57:52;25.33;;;10.32;;
66175;SDS011;52977;44.816;20.538;2023-04-07T02:00:19;22.05;;;11.13;;
66175;SDS011;52977;44.816;20.538;2023-04-07T02:02:51;23.40;;;11.00;;
66175;SDS011;52977;44.816;20.538;2023-04-07T02:05:23;24.48;;;10.70;;
66175;SDS011;52977;44.816;20.538;2023-04-07T02:07:54;22.15;;;10.43;;
66175;SDS011;52977;44.816;20.538;2023-04-07T02:10:27;22.10;;;9.65;;
66175;SDS011;52977;44.816;20.538;2023-04-07T02:12:57;23.17;;;10.60;;
66175;SDS011;52977;44.816;20.538;2023-04-07T02:15:27;20.05;;;10.20;;
66175;SDS011;52977;44.816;20.538;2023-04-07T02:17:56;22.08;;;10.45;;
66175;SDS011;52977;44.816;20.538;2023-04-07T02:20:24;21.25;;;10.48;;
66175;SDS011;52977;44.816;20.538;2023-04-07T02:22:52;23.75;;;9.95;;
66175;SDS011;52977;44.816;20.538;2023-04-07T02:25:25;24.55;;;10.88;;
66175;SDS011;52977;44.816;20.538;2023-04-07T02:27:56;20.88;;;10.30;;
66175;SDS011;52977;44.816;20.538;2023-04-07T02:30:22;20.63;;;9.88;;
66175;SDS011;52977;44.816;20.538;2023-04-07T02:32:49;22.77;;;10.63;;
66175;SDS011;52977;44.816;20.538;2023-04-07T02:35:15;19.05;;;9.82;;
66175;SDS011;52977;44.816;20.538;2023-04-07T02:37:42;21.38;;;10.93;;
66175;SDS011;52977;44.816;20.538;2023-04-07T02:40:09;24.60;;;10.57;;
66175;SDS011;52977;44.816;20.538;2023-04-07T02:42:36;22.80;;;10.13;;
66175;SDS011;52977;44.816;20.538;2023-04-07T02:45:03;25.83;;;11.00;;
66175;SDS011;52977;44.816;20.538;2023-04-07T02:47:30;20.38;;;9.75;;
66175;SDS011;52977;44.816;20.538;2023-04-07T02:49:57;19.35;;;10.52;;
66175;SDS011;52977;44.816;20.538;2023-04-07T02:52:24;23.55;;;10.90;;
66175;SDS011;52977;44.816;20.538;2023-04-07T02:54:51;24.63;;;11.15;;
66175;SDS011;52977;44.816;20.538;2023-04-07T02:57:20;25.50;;;11.40;;
66175;SDS011;52977;44.816;20.538;2023-04-07T02:59:48;23.40;;;11.25;;
66175;SDS011;52977;44.816;20.538;2023-04-07T03:02:15;28.00;;;10.95;;
66175;SDS011;52977;44.816;20.538;2023-04-07T03:04:41;24.20;;;11.70;;
66175;SDS011;52977;44.816;20.538;2023-04-07T03:07:07;27.45;;;11.45;;
66175;SDS011;52977;44.816;20.538;2023-04-07T03:09:33;26.40;;;11.60;;
66175;SDS011;52977;44.816;20.538;2023-04-07T03:12:00;26.08;;;11.63;;
66175;SDS011;52977;44.816;20.538;2023-04-07T03:14:31;21.52;;;10.73;;
66175;SDS011;52977;44.816;20.538;2023-04-07T03:16:59;24.55;;;11.00;;
66175;SDS011;52977;44.816;20.538;2023-04-07T03:19:25;27.20;;;11.82;;
66175;SDS011;52977;44.816;20.538;2023-04-07T03:21:52;24.73;;;11.13;;
66175;SDS011;52977;44.816;20.538;2023-04-07T03:24:18;23.10;;;11.88;;
66175;SDS011;52977;44.816;20.538;2023-04-07T03:26:45;28.95;;;11.98;;
66175;SDS011;52977;44.816;20.538;2023-04-07T03:29:19;22.05;;;11.32;;
66175;SDS011;52977;44.816;20.538;2023-04-07T03:31:45;24.10;;;11.10;;
66175;SDS011;52977;44.816;20.538;2023-04-07T03:34:14;27.95;;;11.23;;
66175;SDS011;52977;44.816;20.538;2023-04-07T03:36:39;22.85;;;10.50;;
66175;SDS011;52977;44.816;20.538;2023-04-07T03:39:05;25.80;;;10.45;;
66175;SDS011;52977;44.816;20.538;2023-04-07T03:41:31;22.00;;;10.13;;
66175;SDS011;52977;44.816;20.538;2023-04-07T03:43:57;24.00;;;10.70;;
66175;SDS011;52977;44.816;20.538;2023-04-07T03:46:22;26.05;;;10.50;;
66175;SDS011;52977;44.816;20.538;2023-04-07T03:48:51;23.80;;;11.32;;
66175;SDS011;52977;44.816;20.538;2023-04-07T03:51:19;21.33;;;10.73;;
66175;SDS011;52977;44.816;20.538;2023-04-07T03:53:50;22.83;;;9.40;;
66175;SDS011;52977;44.816;20.538;2023-04-07T03:56:29;24.55;;;10.50;;
66175;SDS011;52977;44.816;20.538;2023-04-07T03:58:57;21.65;;;10.63;;
66175;SDS011;52977;44.816;20.538;2023-04-07T04:01:30;22.67;;;10.65;;
66175;SDS011;52977;44.816;20.538;2023-04-07T04:04:03;23.23;;;10.20;;
66175;SDS011;52977;44.816;20.538;2023-04-07T04:06:29;21.83;;;10.75;;
66175;SDS011;52977;44.816;20.538;2023-04-07T04:09:03;23.90;;;10.80;;
66175;SDS011;52977;44.816;20.538;2023-04-07T04:11:33;24.60;;;11.45;;
66175;SDS011;52977;44.816;20.538;2023-04-07T04:14:02;23.42;;;11.70;;
66175;SDS011;52977;44.816;20.538;2023-04-07T04:16:28;23.75;;;11.43;;
66175;SDS011;52977;44.816;20.538;2023-04-07T04:18:57;23.88;;;11.73;;
66175;SDS011;52977;44.816;20.538;2023-04-07T04:21:24;26.20;;;11.85;;
66175;SDS011;52977;44.816;20.538;2023-04-07T04:23:51;25.05;;;11.45;;
66175;SDS011;52977;44.816;20.538;2023-04-07T04:26:17;24.08;;;11.77;;
66175;SDS011;52977;44.816;20.538;2023-04-07T04:28:44;27.55;;;12.10;;
66175;SDS011;52977;44.816;20.538;2023-04-07T04:31:11;26.02;;;12.55;;
66175;SDS011;52977;44.816;20.538;2023-04-07T04:33:41;27.77;;;12.23;;
66175;SDS011;52977;44.816;20.538;2023-04-07T04:36:07;19.42;;;10.52;;
66175;SDS011;52977;44.816;20.538;2023-04-07T04:38:33;25.88;;;11.63;;
66175;SDS011;52977;44.816;20.538;2023-04-07T04:41:05;23.05;;;11.55;;
66175;SDS011;52977;44.816;20.538;2023-04-07T04:43:32;24.42;;;12.02;;
66175;SDS011;52977;44.816;20.538;2023-04-07T04:46:00;26.33;;;10.82;;
66175;SDS011;52977;44.816;20.538;2023-04-07T04:48:31;22.17;;;11.10;;
66175;SDS011;52977;44.816;20.538;2023-04-07T04:50:57;24.63;;;11.05;;
66175;SDS011;52977;44.816;20.538;2023-04-07T04:53:22;24.38;;;11.45;;
66175;SDS011;52977;44.816;20.538;2023-04-07T04:55:54;29.30;;;12.15;;
66175;SDS011;52977;44.816;20.538;2023-04-07T04:58:24;24.02;;;11.63;;
66175;SDS011;52977;44.816;20.538;2023-04-07T05:00:54;27.40;;;11.43;;
66175;SDS011;52977;44.816;20.538;2023-04-07T05:03:37;26.65;;;12.73;;
66175;SDS011;52977;44.816;20.538;2023-04-07T05:06:10;25.48;;;11.75;;
66175;SDS011;52977;44.816;20.538;2023-04-07T05:08:36;28.10;;;12.35;;
66175;SDS011;52977;44.816;20.538;2023-04-07T05:11:02;28.17;;;11.80;;
66175;SDS011;52977;44.816;20.538;2023-04-07T05:13:32;29.00;;;11.98;;
66175;SDS011;52977;44.816;20.538;2023-04-07T05:16:01;30.20;;;13.20;;
66175;SDS011;52977;44.816;20.538;2023-04-07T05:18:29;25.13;;;12.25;;
66175;SDS011;52977;44.816;20.538;2023-04-07T05:20:57;30.88;;;12.55;;
66175;SDS011;52977;44.816;20.538;2023-04-07T05:23:25;24.88;;;11.27;;
66175;SDS011;52977;44.816;20.538;2023-04-07T05:25:51;27.42;;;12.02;;
66175;SDS011;52977;44.816;20.538;2023-04-07T05:28:17;32.05;;;12.90;;
66175;SDS011;52977;44.816;20.538;2023-04-07T05:30:44;28.83;;;13.32;;
66175;SDS011;52977;44.816;20.538;2023-04-07T05:33:11;29.00;;;13.13;;
66175;SDS011;52977;44.816;20.538;2023-04-07T05:35:43;28.05;;;13.32;;
66175;SDS011;52977;44.816;20.538;2023-04-07T05:38:10;33.50;;;14.13;;
66175;SDS011;52977;44.816;20.538;2023-04-07T05:40:38;28.60;;;14.00;;
66175;SDS011;52977;44.816;20.538;2023-04-07T05:43:06;27.00;;;12.65;;
66175;SDS011;52977;44.816;20.538;2023-04-07T05:45:33;28.38;;;12.82;;
66175;SDS011;52977;44.816;20.538;2023-04-07T05:47:58;29.85;;;12.73;;
66175;SDS011;52977;44.816;20.538;2023-04-07T05:50:32;27.40;;;12.30;;
66175;SDS011;52977;44.816;20.538;2023-04-07T05:53:02;25.70;;;12.48;;
66175;SDS011;52977;44.816;20.538;2023-04-07T05:55:28;25.90;;;11.93;;
66175;SDS011;52977;44.816;20.538;2023-04-07T05:57:53;26.20;;;12.05;;
66175;SDS011;52977;44.816;20.538;2023-04-07T06:00:22;25.80;;;11.95;;
66175;SDS011;52977;44.816;20.538;2023-04-07T06:02:58;26.05;;;12.90;;
66175;SDS011;52977;44.816;20.538;2023-04-07T06:05:25;26.60;;;13.27;;
66175;SDS011;52977;44.816;20.538;2023-04-07T06:07:54;26.88;;;13.38;;
66175;SDS011;52977;44.816;20.538;2023-04-07T06:10:22;24.92;;;11.90;;
66175;SDS011;52977;44.816;20.538;2023-04-07T06:12:49;26.60;;;12.57;;
66175;SDS011;52977;44.816;20.538;2023-04-07T06:15:15;28.92;;;13.48;;
66175;SDS011;52977;44.816;20.538;2023-04-07T06:17:41;25.67;;;12.32;;
66175;SDS011;52977;44.816;20.538;2023-04-07T06:20:09;34.00;;;13.65;;
66175;SDS011;52977;44.816;20.538;2023-04-07T06:22:35;30.55;;;13.82;;
66175;SDS011;52977;44.816;20.538;2023-04-07T06:25:01;32.88;;;14.25;;
66175;SDS011;52977;44.816;20.538;2023-04-07T06:27:27;23.52;;;12.32;;
66175;SDS011;52977;44.816;20.538;2023-04-07T06:29:55;26.75;;;11.95;;
66175;SDS011;52977;44.816;20.538;2023-04-07T06:32:22;27.15;;;12.27;;
66175;SDS011;52977;44.816;20.538;2023-04-07T06:34:49;25.45;;;11.93;;
66175;SDS011;52977;44.816;20.538;2023-04-07T06:37:16;30.00;;;12.85;;
66175;SDS011;52977;44.816;20.538;2023-04-07T06:39:42;27.90;;;12.68;;
66175;SDS011;52977;44.816;20.538;2023-04-07T06:42:08;27.67;;;12.77;;
66175;SDS011;52977;44.816;20.538;2023-04-07T06:44:43;30.17;;;12.90;;
66175;SDS011;52977;44.816;20.538;2023-04-07T06:47:09;28.77;;;14.10;;
66175;SDS011;52977;44.816;20.538;2023-04-07T06:49:35;28.30;;;12.95;;
66175;SDS011;52977;44.816;20.538;2023-04-07T06:52:01;38.13;;;14.45;;
66175;SDS011;52977;44.816;20.538;2023-04-07T06:54:27;37.35;;;15.27;;
66175;SDS011;52977;44.816;20.538;2023-04-07T06:56:53;30.67;;;14.05;;
66175;SDS011;52977;44.816;20.538;2023-04-07T06:59:21;30.55;;;13.00;;
66175;SDS011;52977;44.816;20.538;2023-04-07T07:01:47;31.20;;;12.98;;
66175;SDS011;52977;44.816;20.538;2023-04-07T07:04:13;31.77;;;13.63;;
66175;SDS011;52977;44.816;20.538;2023-04-07T07:06:40;28.77;;;12.75;;
66175;SDS011;52977;44.816;20.538;2023-04-07T07:09:06;33.95;;;13.35;;
66175;SDS011;52977;44.816;20.538;2023-04-07T07:11:32;36.20;;;14.50;;
66175;SDS011;52977;44.816;20.538;2023-04-07T07:13:58;34.17;;;13.88;;
66175;SDS011;52977;44.816;20.538;2023-04-07T07:16:24;39.40;;;13.30;;
66175;SDS011;52977;44.816;20.538;2023-04-07T07:18:51;34.08;;;14.73;;
66175;SDS011;52977;44.816;20.538;2023-04-07T07:21:17;36.17;;;14.65;;
66175;SDS011;52977;44.816;20.538;2023-04-07T07:23:44;34.70;;;13.98;;
66175;SDS011;52977;44.816;20.538;2023-04-07T07:26:10;36.17;;;14.27;;
66175;SDS011;52977;44.816;20.538;2023-04-07T07:28:36;33.25;;;14.82;;
66175;SDS011;52977;44.816;20.538;2023-04-07T07:31:11;34.35;;;14.65;;
66175;SDS011;52977;44.816;20.538;2023-04-07T07:33:40;39.28;;;16.52;;
66175;SDS011;52977;44.816;20.538;2023-04-07T07:36:08;39.22;;;15.25;;
66175;SDS011;52977;44.816;20.538;2023-04-07T07:38:35;36.70;;;14.48;;
66175;SDS011;52977;44.816;20.538;2023-04-07T07:41:01;35.15;;;15.20;;
66175;SDS011;52977;44.816;20.538;2023-04-07T07:43:27;32.38;;;14.27;;
66175;SDS011;52977;44.816;20.538;2023-04-07T07:45:54;34.53;;;14.95;;
66175;SDS011;52977;44.816;20.538;2023-04-07T07:48:20;35.15;;;14.95;;
66175;SDS011;52977;44.816;20.538;2023-04-07T07:50:46;31.73;;;14.60;;
66175;SDS011;52977;44.816;20.538;2023-04-07T07:53:13;38.90;;;15.15;;
66175;SDS011;52977;44.816;20.538;2023-04-07T07:55:40;31.80;;;14.57;;
66175;SDS011;52977;44.816;20.538;2023-04-07T07:58:06;34.78;;;15.48;;
66175;SDS011;52977;44.816;20.538;2023-04-07T08:00:31;35.63;;;15.35;;
66175;SDS011;52977;44.816;20.538;2023-04-07T08:02:57;37.38;;;15.38;;
66175;SDS011;52977;44.816;20.538;2023-04-07T08:05:24;36.53;;;15.40;;
66175;SDS011;52977;44.816;20.538;2023-04-07T08:07:51;36.15;;;15.07;;
66175;SDS011;52977;44.816;20.538;2023-04-07T08:10:18;38.15;;;16.08;;
66175;SDS011;52977;44.816;20.538;2023-04-07T08:12:45;40.15;;;16.60;;
66175;SDS011;52977;44.816;20.538;2023-04-07T08:15:10;39.25;;;16.90;;
66175;SDS011;52977;44.816;20.538;2023-04-07T08:17:36;36.53;;;15.70;;
66175;SDS011;52977;44.816;20.538;2023-04-07T08:20:03;38.00;;;16.25;;
66175;SDS011;52977;44.816;20.538;2023-04-07T08:22:30;39.80;;;15.07;;
66175;SDS011;52977;44.816;20.538;2023-04-07T08:24:57;34.78;;;14.63;;
66175;SDS011;52977;44.816;20.538;2023-04-07T08:27:23;36.40;;;15.60;;
66175;SDS011;52977;44.816;20.538;2023-04-07T08:29:57;38.72;;;16.20;;
66175;SDS011;52977;44.816;20.538;2023-04-07T08:32:25;38.83;;;16.70;;
66175;SDS011;52977;44.816;20.538;2023-04-07T08:34:54;40.53;;;15.60;;
66175;SDS011;52977;44.816;20.538;2023-04-07T08:37:20;32.35;;;15.60;;
66175;SDS011;52977;44.816;20.538;2023-04-07T08:39:46;35.88;;;16.08;;
66175;SDS011;52977;44.816;20.538;2023-04-07T08:42:12;38.35;;;15.85;;
66175;SDS011;52977;44.816;20.538;2023-04-07T08:44:38;34.80;;;15.18;;
66175;SDS011;52977;44.816;20.538;2023-04-07T08:47:05;35.95;;;15.05;;
66175;SDS011;52977;44.816;20.538;2023-04-07T08:49:33;35.20;;;16.52;;
66175;SDS011;52977;44.816;20.538;2023-04-07T08:52:04;39.63;;;16.52;;
66175;SDS011;52977;44.816;20.538;2023-04-07T08:54:33;38.75;;;18.05;;
66175;SDS011;52977;44.816;20.538;2023-04-07T08:56:59;40.83;;;16.77;;
66175;SDS011;52977;44.816;20.538;2023-04-07T08:59:28;38.95;;;16.33;;
66175;SDS011;52977;44.816;20.538;2023-04-07T09:01:55;36.00;;;15.43;;
66175;SDS011;52977;44.816;20.538;2023-04-07T09:04:21;31.73;;;15.57;;
66175;SDS011;52977;44.816;20.538;2023-04-07T09:06:49;35.65;;;15.65;;
66175;SDS011;52977;44.816;20.538;2023-04-07T09:09:15;37.08;;;15.68;;
66175;SDS011;52977;44.816;20.538;2023-04-07T09:11:41;34.40;;;15.27;;
66175;SDS011;52977;44.816;20.538;2023-04-07T09:14:08;36.90;;;16.85;;
66175;SDS011;52977;44.816;20.538;2023-04-07T09:16:35;37.13;;;16.02;;
66175;SDS011;52977;44.816;20.538;2023-04-07T09:19:01;36.38;;;15.75;;
66175;SDS011;52977;44.816;20.538;2023-04-07T09:21:45;33.10;;;16.50;;
66175;SDS011;52977;44.816;20.538;2023-04-07T09:24:21;39.72;;;15.38;;
66175;SDS011;52977;44.816;20.538;2023-04-07T09:27:07;35.95;;;15.93;;
66175;SDS011;52977;44.816;20.538;2023-04-07T09:29:38;35.75;;;15.30;;
66175;SDS011;52977;44.816;20.538;2023-04-07T09:32:05;38.72;;;15.63;;
66175;SDS011;52977;44.816;20.538;2023-04-07T09:34:33;38.15;;;16.23;;
66175;SDS011;52977;44.816;20.538;2023-04-07T09:37:00;37.97;;;15.93;;
66175;SDS011;52977;44.816;20.538;2023-04-07T09:39:27;37.83;;;16.80;;
66175;SDS011;52977;44.816;20.538;2023-04-07T09:41:54;39.47;;;16.25;;
66175;SDS011;52977;44.816;20.538;2023-04-07T09:44:20;34.50;;;15.98;;
66175;SDS011;52977;44.816;20.538;2023-04-07T09:46:54;40.33;;;16.45;;
66175;SDS011;52977;44.816;20.538;2023-04-07T09:49:21;39.20;;;16.85;;
66175;SDS011;52977;44.816;20.538;2023-04-07T09:51:52;41.90;;;17.30;;
66175;SDS011;52977;44.816;20.538;2023-04-07T09:54:37;41.38;;;17.77;;
66175;SDS011;52977;44.816;20.538;2023-04-07T09:57:07;36.58;;;17.30;;
66175;SDS011;52977;44.816;20.538;2023-04-07T09:59:39;37.58;;;17.02;;
66175;SDS011;52977;44.816;20.538;2023-04-07T10:02:10;39.10;;;17.40;;
66175;SDS011;52977;44.816;20.538;2023-04-07T10:04:37;40.20;;;16.65;;
66175;SDS011;52977;44.816;20.538;2023-04-07T10:07:04;35.10;;;15.98;;
66175;SDS011;52977;44.816;20.538;2023-04-07T10:09:31;41.67;;;17.10;;
66175;SDS011;52977;44.816;20.538;2023-04-07T10:11:57;41.97;;;18.20;;
66175;SDS011;52977;44.816;20.538;2023-04-07T10:14:32;40.55;;;17.75;;
66175;SDS011;52977;44.816;20.538;2023-04-07T10:17:00;41.25;;;16.52;;
66175;SDS011;52977;44.816;20.538;2023-04-07T10:19:28;43.10;;;16.95;;
66175;SDS011;52977;44.816;20.538;2023-04-07T10:21:57;37.55;;;16.52;;
66175;SDS011;52977;44.816;20.538;2023-04-07T10:27:05;41.75;;;16.50;;
66175;SDS011;52977;44.816;20.538;2023-04-07T10:29:38;40.45;;;17.67;;
66175;SDS011;52977;44.816;20.538;2023-04-07T10:32:07;37.40;;;16.67;;
66175;SDS011;52977;44.816;20.538;2023-04-07T10:37:36;35.42;;;15.35;;
66175;SDS011;52977;44.816;20.538;2023-04-07T10:42:45;30.77;;;14.85;;
66175;SDS011;52977;44.816;20.538;2023-04-07T10:48:16;36.22;;;15.15;;
66175;SDS011;52977;44.816;20.538;2023-04-07T10:50:43;30.42;;;14.75;;
66175;SDS011;52977;44.816;20.538;2023-04-07T10:53:11;35.55;;;15.18;;
66175;SDS011;52977;44.816;20.538;2023-04-07T10:55:42;33.80;;;14.77;;
66175;SDS011;52977;44.816;20.538;2023-04-07T10:58:15;32.30;;;15.18;;
66175;SDS011;52977;44.816;20.538;2023-04-07T11:01:15;34.20;;;15.95;;
66175;SDS011;52977;44.816;20.538;2023-04-07T11:03:32;31.95;;;15.27;;
66175;SDS011;52977;44.816;20.538;2023-04-07T11:06:08;36.22;;;15.80;;
66175;SDS011;52977;44.816;20.538;2023-04-07T11:08:40;34.53;;;15.10;;
66175;SDS011;52977;44.816;20.538;2023-04-07T11:11:09;33.75;;;14.55;;
66175;SDS011;52977;44.816;20.538;2023-04-07T11:13:40;35.95;;;15.18;;
66175;SDS011;52977;44.816;20.538;2023-04-07T11:16:07;32.70;;;15.48;;
66175;SDS011;52977;44.816;20.538;2023-04-07T11:18:34;31.63;;;14.30;;
66175;SDS011;52977;44.816;20.538;2023-04-07T11:21:02;31.52;;;15.23;;
66175;SDS011;52977;44.816;20.538;2023-04-07T11:23:36;33.03;;;14.55;;
66175;SDS011;52977;44.816;20.538;2023-04-07T11:26:03;32.65;;;13.65;;
66175;SDS011;52977;44.816;20.538;2023-04-07T11:28:30;31.90;;;15.25;;
66175;SDS011;52977;44.816;20.538;2023-04-07T11:30:56;28.73;;;14.23;;
66175;SDS011;52977;44.816;20.538;2023-04-07T11:33:27;33.13;;;13.88;;
66175;SDS011;52977;44.816;20.538;2023-04-07T11:35:58;28.83;;;12.25;;
66175;SDS011;52977;44.816;20.538;2023-04-07T11:38:25;28.17;;;13.50;;
66175;SDS011;52977;44.816;20.538;2023-04-07T11:40:53;29.15;;;13.65;;
66175;SDS011;52977;44.816;20.538;2023-04-07T11:43:21;28.45;;;12.95;;
66175;SDS011;52977;44.816;20.538;2023-04-07T11:48:33;28.23;;;12.77;;
66175;SDS011;52977;44.816;20.538;2023-04-07T11:51:00;27.35;;;12.93;;
66175;SDS011;52977;44.816;20.538;2023-04-07T11:53:27;28.15;;;14.05;;
66175;SDS011;52977;44.816;20.538;2023-04-07T11:55:58;34.20;;;14.13;;
66175;SDS011;52977;44.816;20.538;2023-04-07T11:58:27;31.40;;;13.32;;
66175;SDS011;52977;44.816;20.538;2023-04-07T12:01:00;28.40;;;13.00;;
66175;SDS011;52977;44.816;20.538;2023-04-07T12:03:30;32.30;;;13.15;;
66175;SDS011;52977;44.816;20.538;2023-04-07T12:05:56;26.15;;;12.95;;
66175;SDS011;52977;44.816;20.538;2023-04-07T12:08:35;26.45;;;12.55;;
66175;SDS011;52977;44.816;20.538;2023-04-07T12:11:09;27.25;;;12.05;;
66175;SDS011;52977;44.816;20.538;2023-04-07T12:13:35;25.10;;;11.85;;
66175;SDS011;52977;44.816;20.538;2023-04-07T12:16:02;24.67;;;12.38;;
66175;SDS011;52977;44.816;20.538;2023-04-07T12:18:28;25.50;;;11.80;;
66175;SDS011;52977;44.816;20.538;2023-04-07T12:20:54;27.10;;;12.55;;
66175;SDS011;52977;44.816;20.538;2023-04-07T12:23:21;25.02;;;12.07;;
66175;SDS011;52977;44.816;20.538;2023-04-07T12:25:47;25.40;;;11.70;;
66175;SDS011;52977;44.816;20.538;2023-04-07T12:28:13;26.85;;;11.82;;
66175;SDS011;52977;44.816;20.538;2023-04-07T12:30:38;28.00;;;12.27;;
66175;SDS011;52977;44.816;20.538;2023-04-07T12:33:04;26.13;;;12.55;;
66175;SDS011;52977;44.816;20.538;2023-04-07T12:35:30;26.13;;;11.95;;
66175;SDS011;52977;44.816;20.538;2023-04-07T12:37:56;26.17;;;12.15;;
66175;SDS011;52977;44.816;20.538;2023-04-07T12:40:22;29.00;;;12.48;;
66175;SDS011;52977;44.816;20.538;2023-04-07T12:42:49;26.77;;;12.13;;
66175;SDS011;52977;44.816;20.538;2023-04-07T12:45:14;28.05;;;12.25;;
66175;SDS011;52977;44.816;20.538;2023-04-07T12:47:40;28.60;;;13.38;;
66175;SDS011;52977;44.816;20.538;2023-04-07T12:50:07;24.30;;;12.48;;
66175;SDS011;52977;44.816;20.538;2023-04-07T12:52:32;28.85;;;12.57;;
66175;SDS011;52977;44.816;20.538;2023-04-07T12:54:58;27.25;;;12.07;;
66175;SDS011;52977;44.816;20.538;2023-04-07T12:57:24;22.98;;;11.07;;
66175;SDS011;52977;44.816;20.538;2023-04-07T12:59:49;24.08;;;11.85;;
66175;SDS011;52977;44.816;20.538;2023-04-07T13:02:16;24.83;;;12.07;;
66175;SDS011;52977;44.816;20.538;2023-04-07T13:04:43;24.65;;;11.95;;
66175;SDS011;52977;44.816;20.538;2023-04-07T13:07:12;25.73;;;12.27;;
66175;SDS011;52977;44.816;20.538;2023-04-07T13:09:38;30.38;;;13.23;;
66175;SDS011;52977;44.816;20.538;2023-04-07T13:12:10;25.30;;;13.13;;
66175;SDS011;52977;44.816;20.538;2023-04-07T13:14:40;25.95;;;13.30;;
66175;SDS011;52977;44.816;20.538;2023-04-07T13:17:06;28.80;;;12.73;;
66175;SDS011;52977;44.816;20.538;2023-04-07T13:19:33;25.10;;;12.40;;
66175;SDS011;52977;44.816;20.538;2023-04-07T13:21:59;24.35;;;11.95;;
66175;SDS011;52977;44.816;20.538;2023-04-07T13:24:25;26.73;;;11.80;;
66175;SDS011;52977;44.816;20.538;2023-04-07T13:26:51;28.27;;;12.50;;
66175;SDS011;52977;44.816;20.538;2023-04-07T13:29:17;24.77;;;11.65;;
66175;SDS011;52977;44.816;20.538;2023-04-07T13:31:44;27.40;;;12.07;;
66175;SDS011;52977;44.816;20.538;2023-04-07T13:34:11;28.10;;;11.27;;
66175;SDS011;52977;44.816;20.538;2023-04-07T13:36:38;26.25;;;12.20;;
66175;SDS011;52977;44.816;20.538;2023-04-07T13:39:05;21.85;;;11.75;;
66175;SDS011;52977;44.816;20.538;2023-04-07T13:41:31;28.38;;;11.88;;
66175;SDS011;52977;44.816;20.538;2023-04-07T13:43:57;26.10;;;11.90;;
66175;SDS011;52977;44.816;20.538;2023-04-07T13:46:25;23.58;;;11.88;;
66175;SDS011;52977;44.816;20.538;2023-04-07T13:48:51;27.75;;;13.32;;
66175;SDS011;52977;44.816;20.538;2023-04-07T13:51:18;26.75;;;13.57;;
66175;SDS011;52977;44.816;20.538;2023-04-07T13:53:44;25.92;;;13.57;;
66175;SDS011;52977;44.816;20.538;2023-04-07T13:56:11;23.27;;;11.35;;
66175;SDS011;52977;44.816;20.538;2023-04-07T13:58:37;26.38;;;12.20;;
66175;SDS011;52977;44.816;20.538;2023-04-07T14:01:03;27.90;;;12.75;;
66175;SDS011;52977;44.816;20.538;2023-04-07T14:03:29;27.05;;;13.35;;
66175;SDS011;52977;44.816;20.538;2023-04-07T14:05:56;28.90;;;13.18;;
66175;SDS011;52977;44.816;20.538;2023-04-07T14:08:25;27.85;;;13.55;;
66175;SDS011;52977;44.816;20.538;2023-04-07T14:10:52;26.00;;;12.73;;
66175;SDS011;52977;44.816;20.538;2023-04-07T14:13:18;29.33;;;13.43;;
66175;SDS011;52977;44.816;20.538;2023-04-07T14:15:44;27.17;;;13.40;;
66175;SDS011;52977;44.816;20.538;2023-04-07T14:18:09;27.73;;;12.73;;
66175;SDS011;52977;44.816;20.538;2023-04-07T14:20:35;29.42;;;13.30;;
66175;SDS011;52977;44.816;20.538;2023-04-07T14:23:01;26.83;;;12.48;;
66175;SDS011;52977;44.816;20.538;2023-04-07T14:25:26;27.73;;;12.52;;
66175;SDS011;52977;44.816;20.538;2023-04-07T14:27:53;29.23;;;13.63;;
66175;SDS011;52977;44.816;20.538;2023-04-07T14:30:19;32.00;;;13.15;;
66175;SDS011;52977;44.816;20.538;2023-04-07T14:32:45;29.67;;;12.77;;
66175;SDS011;52977;44.816;20.538;2023-04-07T14:35:10;28.60;;;13.23;;
66175;SDS011;52977;44.816;20.538;2023-04-07T14:37:36;31.70;;;13.98;;